sensor_id;sensor_type;location;lat;lon;timestamp;P1;durP1;ratioP1;P2;durP2;ratioP2
44116;SDS011;29781;49.480;8.512;2022-07-23T00:01:15;10.25;;;7.63;;
44116;SDS011;29781;49.480;8.512;2022-07-23T00:03:41;11.20;;;7.15;;
44116;SDS011;29781;49.480;8.512;2022-07-23T00:06:06;11.93;;;7.97;;
44116;SDS011;29781;49.480;8.512;2022-07-23T00:08:32;10.05;;;7.72;;
44116;SDS011;29781;49.480;8.512;2022-07-23T00:10:58;12.45;;;7.88;;
44116;SDS011;29781;49.480;8.512;2022-07-23T00:13:24;13.32;;;7.97;;
44116;SDS011;29781;49.480;8.512;2022-07-23T00:15:49;11.60;;;7.43;;
44116;SDS011;29781;49.480;8.512;2022-07-23T00:18:15;10.90;;;7.35;;
44116;SDS011;29781;49.480;8.512;2022-07-23T00:20:40;8.57;;;7.68;;
44116;SDS011;29781;49.480;8.512;2022-07-23T00:23:06;8.45;;;6.80;;
44116;SDS011;29781;49.480;8.512;2022-07-23T00:25:32;7.78;;;6.97;;
44116;SDS011;29781;49.480;8.512;2022-07-23T00:27:58;7.78;;;6.88;;
44116;SDS011;29781;49.480;8.512;2022-07-23T00:30:24;8.20;;;6.53;;
44116;SDS011;29781;49.480;8.512;2022-07-23T00:32:52;8.38;;;7.18;;
44116;SDS011;29781;49.480;8.512;2022-07-23T00:35:19;8.60;;;7.53;;
44116;SDS011;29781;49.480;8.512;2022-07-23T00:37:46;8.55;;;7.30;;
44116;SDS011;29781;49.480;8.512;2022-07-23T00:40:12;9.43;;;6.88;;
44116;SDS011;29781;49.480;8.512;2022-07-23T00:42:39;7.70;;;7.00;;
44116;SDS011;29781;49.480;8.512;2022-07-23T00:45:05;8.45;;;6.50;;
44116;SDS011;29781;49.480;8.512;2022-07-23T00:47:31;8.05;;;7.10;;
44116;SDS011;29781;49.480;8.512;2022-07-23T00:49:57;7.88;;;6.85;;
44116;SDS011;29781;49.480;8.512;2022-07-23T00:52:23;10.35;;;7.03;;
44116;SDS011;29781;49.480;8.512;2022-07-23T00:54:49;10.70;;;6.85;;
44116;SDS011;29781;49.480;8.512;2022-07-23T00:57:15;11.18;;;7.03;;
44116;SDS011;29781;49.480;8.512;2022-07-23T00:59:41;10.05;;;7.07;;
44116;SDS011;29781;49.480;8.512;2022-07-23T01:02:07;8.60;;;7.47;;
44116;SDS011;29781;49.480;8.512;2022-07-23T01:04:33;6.80;;;6.18;;
44116;SDS011;29781;49.480;8.512;2022-07-23T01:06:59;8.65;;;6.78;;
44116;SDS011;29781;49.480;8.512;2022-07-23T01:09:25;9.88;;;6.82;;
44116;SDS011;29781;49.480;8.512;2022-07-23T01:11:51;6.60;;;6.00;;
44116;SDS011;29781;49.480;8.512;2022-07-23T01:14:19;7.32;;;6.65;;
44116;SDS011;29781;49.480;8.512;2022-07-23T01:16:46;7.40;;;6.30;;
44116;SDS011;29781;49.480;8.512;2022-07-23T01:19:13;9.73;;;6.55;;
44116;SDS011;29781;49.480;8.512;2022-07-23T01:21:42;9.63;;;6.68;;
44116;SDS011;29781;49.480;8.512;2022-07-23T01:24:12;7.15;;;6.45;;
44116;SDS011;29781;49.480;8.512;2022-07-23T01:26:40;9.02;;;6.00;;
44116;SDS011;29781;49.480;8.512;2022-07-23T01:29:08;8.07;;;6.20;;
44116;SDS011;29781;49.480;8.512;2022-07-23T01:31:33;10.70;;;6.72;;
44116;SDS011;29781;49.480;8.512;2022-07-23T01:33:59;8.07;;;6.60;;
44116;SDS011;29781;49.480;8.512;2022-07-23T01:36:25;11.20;;;6.43;;
44116;SDS011;29781;49.480;8.512;2022-07-23T01:38:50;9.32;;;6.75;;
44116;SDS011;29781;49.480;8.512;2022-07-23T01:41:16;7.15;;;6.45;;
44116;SDS011;29781;49.480;8.512;2022-07-23T01:43:42;7.45;;;6.38;;
44116;SDS011;29781;49.480;8.512;2022-07-23T01:46:08;8.38;;;6.63;;
44116;SDS011;29781;49.480;8.512;2022-07-23T01:48:34;8.52;;;6.90;;
44116;SDS011;29781;49.480;8.512;2022-07-23T01:51:00;9.48;;;7.05;;
44116;SDS011;29781;49.480;8.512;2022-07-23T01:53:25;7.82;;;6.25;;
44116;SDS011;29781;49.480;8.512;2022-07-23T01:55:51;11.00;;;6.57;;
44116;SDS011;29781;49.480;8.512;2022-07-23T01:58:17;6.90;;;6.22;;
44116;SDS011;29781;49.480;8.512;2022-07-23T02:00:42;8.23;;;6.00;;
44116;SDS011;29781;49.480;8.512;2022-07-23T02:03:08;7.18;;;6.47;;
44116;SDS011;29781;49.480;8.512;2022-07-23T02:05:34;9.25;;;6.50;;
44116;SDS011;29781;49.480;8.512;2022-07-23T02:08:00;6.55;;;5.72;;
44116;SDS011;29781;49.480;8.512;2022-07-23T02:10:26;7.45;;;5.68;;
44116;SDS011;29781;49.480;8.512;2022-07-23T02:12:52;6.82;;;5.95;;
44116;SDS011;29781;49.480;8.512;2022-07-23T02:15:18;8.48;;;6.10;;
44116;SDS011;29781;49.480;8.512;2022-07-23T02:17:43;6.63;;;6.03;;
44116;SDS011;29781;49.480;8.512;2022-07-23T02:20:10;6.97;;;6.28;;
44116;SDS011;29781;49.480;8.512;2022-07-23T02:22:36;6.78;;;5.95;;
44116;SDS011;29781;49.480;8.512;2022-07-23T02:25:06;7.30;;;6.60;;
44116;SDS011;29781;49.480;8.512;2022-07-23T02:27:33;9.23;;;6.53;;
44116;SDS011;29781;49.480;8.512;2022-07-23T02:30:00;7.00;;;6.30;;
44116;SDS011;29781;49.480;8.512;2022-07-23T02:32:25;6.90;;;6.25;;
44116;SDS011;29781;49.480;8.512;2022-07-23T02:34:51;9.32;;;6.10;;
44116;SDS011;29781;49.480;8.512;2022-07-23T02:37:17;6.50;;;5.90;;
44116;SDS011;29781;49.480;8.512;2022-07-23T02:39:43;7.75;;;6.25;;
44116;SDS011;29781;49.480;8.512;2022-07-23T02:42:09;9.98;;;6.60;;
44116;SDS011;29781;49.480;8.512;2022-07-23T02:44:35;8.75;;;6.10;;
44116;SDS011;29781;49.480;8.512;2022-07-23T02:47:01;10.00;;;6.70;;
44116;SDS011;29781;49.480;8.512;2022-07-23T02:49:26;7.57;;;6.88;;
44116;SDS011;29781;49.480;8.512;2022-07-23T02:51:52;8.15;;;7.38;;
44116;SDS011;29781;49.480;8.512;2022-07-23T02:54:18;8.18;;;6.82;;
44116;SDS011;29781;49.480;8.512;2022-07-23T02:56:44;10.23;;;6.80;;
44116;SDS011;29781;49.480;8.512;2022-07-23T02:59:09;10.05;;;7.60;;
44116;SDS011;29781;49.480;8.512;2022-07-23T03:01:35;9.85;;;7.05;;
44116;SDS011;29781;49.480;8.512;2022-07-23T03:04:01;7.75;;;7.05;;
44116;SDS011;29781;49.480;8.512;2022-07-23T03:06:27;7.97;;;7.18;;
44116;SDS011;29781;49.480;8.512;2022-07-23T03:08:53;9.23;;;6.60;;
44116;SDS011;29781;49.480;8.512;2022-07-23T03:11:19;7.90;;;7.20;;
44116;SDS011;29781;49.480;8.512;2022-07-23T03:13:45;8.82;;;6.80;;
44116;SDS011;29781;49.480;8.512;2022-07-23T03:16:10;8.63;;;7.10;;
44116;SDS011;29781;49.480;8.512;2022-07-23T03:18:36;9.43;;;7.40;;
44116;SDS011;29781;49.480;8.512;2022-07-23T03:21:02;9.93;;;7.03;;
44116;SDS011;29781;49.480;8.512;2022-07-23T03:23:27;15.23;;;7.47;;
44116;SDS011;29781;49.480;8.512;2022-07-23T03:25:53;9.75;;;6.50;;
44116;SDS011;29781;49.480;8.512;2022-07-23T03:28:19;7.68;;;6.88;;
44116;SDS011;29781;49.480;8.512;2022-07-23T03:30:45;8.10;;;7.30;;
44116;SDS011;29781;49.480;8.512;2022-07-23T03:33:18;11.38;;;7.78;;
44116;SDS011;29781;49.480;8.512;2022-07-23T03:35:46;11.52;;;7.85;;
44116;SDS011;29781;49.480;8.512;2022-07-23T03:38:12;8.07;;;7.28;;
44116;SDS011;29781;49.480;8.512;2022-07-23T03:40:39;9.85;;;7.95;;
44116;SDS011;29781;49.480;8.512;2022-07-23T03:43:05;10.40;;;7.75;;
44116;SDS011;29781;49.480;8.512;2022-07-23T03:45:30;12.25;;;7.60;;
44116;SDS011;29781;49.480;8.512;2022-07-23T03:47:57;9.00;;;8.05;;
44116;SDS011;29781;49.480;8.512;2022-07-23T03:50:23;9.70;;;7.88;;
44116;SDS011;29781;49.480;8.512;2022-07-23T03:52:49;9.70;;;7.63;;
44116;SDS011;29781;49.480;8.512;2022-07-23T03:55:15;12.07;;;9.02;;
44116;SDS011;29781;49.480;8.512;2022-07-23T03:57:40;9.07;;;8.18;;
44116;SDS011;29781;49.480;8.512;2022-07-23T04:00:07;11.32;;;7.93;;
44116;SDS011;29781;49.480;8.512;2022-07-23T04:02:34;8.45;;;7.03;;
44116;SDS011;29781;49.480;8.512;2022-07-23T04:05:04;12.95;;;8.25;;
44116;SDS011;29781;49.480;8.512;2022-07-23T04:07:30;9.43;;;7.93;;
44116;SDS011;29781;49.480;8.512;2022-07-23T04:09:56;9.20;;;8.25;;
44116;SDS011;29781;49.480;8.512;2022-07-23T04:12:22;8.20;;;7.40;;
44116;SDS011;29781;49.480;8.512;2022-07-23T04:14:48;9.77;;;7.25;;
44116;SDS011;29781;49.480;8.512;2022-07-23T04:17:13;11.98;;;8.43;;
44116;SDS011;29781;49.480;8.512;2022-07-23T04:19:39;9.82;;;7.93;;
44116;SDS011;29781;49.480;8.512;2022-07-23T04:22:09;8.95;;;7.15;;
44116;SDS011;29781;49.480;8.512;2022-07-23T04:24:36;9.00;;;7.63;;
44116;SDS011;29781;49.480;8.512;2022-07-23T04:27:02;8.02;;;7.22;;
44116;SDS011;29781;49.480;8.512;2022-07-23T04:29:28;8.35;;;7.30;;
44116;SDS011;29781;49.480;8.512;2022-07-23T04:31:54;8.73;;;7.82;;
44116;SDS011;29781;49.480;8.512;2022-07-23T04:34:19;9.93;;;8.50;;
44116;SDS011;29781;49.480;8.512;2022-07-23T04:36:45;10.90;;;8.13;;
44116;SDS011;29781;49.480;8.512;2022-07-23T04:39:11;8.77;;;7.90;;
44116;SDS011;29781;49.480;8.512;2022-07-23T04:41:37;9.18;;;8.27;;
44116;SDS011;29781;49.480;8.512;2022-07-23T04:44:02;10.40;;;8.63;;
44116;SDS011;29781;49.480;8.512;2022-07-23T04:46:28;10.82;;;8.80;;
44116;SDS011;29781;49.480;8.512;2022-07-23T04:48:54;10.00;;;8.82;;
44116;SDS011;29781;49.480;8.512;2022-07-23T04:51:20;16.92;;;9.23;;
44116;SDS011;29781;49.480;8.512;2022-07-23T04:53:45;9.95;;;9.05;;
44116;SDS011;29781;49.480;8.512;2022-07-23T04:56:11;14.95;;;9.40;;
44116;SDS011;29781;49.480;8.512;2022-07-23T04:58:37;10.85;;;8.70;;
44116;SDS011;29781;49.480;8.512;2022-07-23T05:01:02;13.68;;;9.73;;
44116;SDS011;29781;49.480;8.512;2022-07-23T05:03:28;11.80;;;9.82;;
44116;SDS011;29781;49.480;8.512;2022-07-23T05:05:54;13.80;;;9.60;;
44116;SDS011;29781;49.480;8.512;2022-07-23T05:08:20;14.63;;;10.23;;
44116;SDS011;29781;49.480;8.512;2022-07-23T05:10:45;13.90;;;10.52;;
44116;SDS011;29781;49.480;8.512;2022-07-23T05:13:11;18.05;;;10.30;;
44116;SDS011;29781;49.480;8.512;2022-07-23T05:15:39;13.90;;;10.88;;
44116;SDS011;29781;49.480;8.512;2022-07-23T05:18:04;12.82;;;10.20;;
44116;SDS011;29781;49.480;8.512;2022-07-23T05:20:30;11.85;;;9.95;;
44116;SDS011;29781;49.480;8.512;2022-07-23T05:22:55;13.73;;;10.60;;
44116;SDS011;29781;49.480;8.512;2022-07-23T05:25:21;12.68;;;10.13;;
44116;SDS011;29781;49.480;8.512;2022-07-23T05:27:47;14.45;;;10.90;;
44116;SDS011;29781;49.480;8.512;2022-07-23T05:30:13;12.95;;;11.55;;
44116;SDS011;29781;49.480;8.512;2022-07-23T05:32:38;13.02;;;11.50;;
44116;SDS011;29781;49.480;8.512;2022-07-23T05:35:05;13.75;;;11.93;;
44116;SDS011;29781;49.480;8.512;2022-07-23T05:37:31;13.60;;;12.13;;
44116;SDS011;29781;49.480;8.512;2022-07-23T05:40:01;13.38;;;11.98;;
44116;SDS011;29781;49.480;8.512;2022-07-23T05:42:28;15.00;;;12.80;;
44116;SDS011;29781;49.480;8.512;2022-07-23T05:44:54;14.63;;;13.10;;
44116;SDS011;29781;49.480;8.512;2022-07-23T05:47:19;17.13;;;13.73;;
44116;SDS011;29781;49.480;8.512;2022-07-23T05:49:45;15.75;;;13.57;;
44116;SDS011;29781;49.480;8.512;2022-07-23T05:52:10;14.93;;;12.85;;
44116;SDS011;29781;49.480;8.512;2022-07-23T05:54:36;14.48;;;12.60;;
44116;SDS011;29781;49.480;8.512;2022-07-23T05:57:02;15.93;;;12.65;;
44116;SDS011;29781;49.480;8.512;2022-07-23T05:59:28;14.85;;;12.85;;
44116;SDS011;29781;49.480;8.512;2022-07-23T06:01:54;15.20;;;12.27;;
44116;SDS011;29781;49.480;8.512;2022-07-23T06:04:20;15.05;;;12.30;;
44116;SDS011;29781;49.480;8.512;2022-07-23T06:06:46;12.75;;;11.43;;
44116;SDS011;29781;49.480;8.512;2022-07-23T06:09:11;15.27;;;11.63;;
44116;SDS011;29781;49.480;8.512;2022-07-23T06:11:38;13.75;;;11.40;;
44116;SDS011;29781;49.480;8.512;2022-07-23T06:14:05;12.80;;;11.43;;
44116;SDS011;29781;49.480;8.512;2022-07-23T06:16:30;14.23;;;12.07;;
44116;SDS011;29781;49.480;8.512;2022-07-23T06:18:56;13.18;;;11.07;;
44116;SDS011;29781;49.480;8.512;2022-07-23T06:21:22;12.95;;;11.48;;
44116;SDS011;29781;49.480;8.512;2022-07-23T06:23:48;14.95;;;11.52;;
44116;SDS011;29781;49.480;8.512;2022-07-23T06:26:14;12.65;;;11.35;;
44116;SDS011;29781;49.480;8.512;2022-07-23T06:28:39;11.23;;;10.13;;
44116;SDS011;29781;49.480;8.512;2022-07-23T06:31:05;13.13;;;10.57;;
44116;SDS011;29781;49.480;8.512;2022-07-23T06:33:31;11.05;;;10.05;;
44116;SDS011;29781;49.480;8.512;2022-07-23T06:35:56;13.90;;;11.13;;
44116;SDS011;29781;49.480;8.512;2022-07-23T06:38:22;12.52;;;11.23;;
44116;SDS011;29781;49.480;8.512;2022-07-23T06:40:48;12.25;;;10.85;;
44116;SDS011;29781;49.480;8.512;2022-07-23T06:43:13;11.50;;;10.18;;
44116;SDS011;29781;49.480;8.512;2022-07-23T06:45:39;13.63;;;11.10;;
44116;SDS011;29781;49.480;8.512;2022-07-23T06:48:05;12.52;;;11.23;;
44116;SDS011;29781;49.480;8.512;2022-07-23T06:50:30;13.27;;;11.88;;
44116;SDS011;29781;49.480;8.512;2022-07-23T06:52:56;13.32;;;11.30;;
44116;SDS011;29781;49.480;8.512;2022-07-23T06:55:22;14.27;;;10.98;;
44116;SDS011;29781;49.480;8.512;2022-07-23T06:57:47;14.75;;;12.35;;
44116;SDS011;29781;49.480;8.512;2022-07-23T07:00:13;14.68;;;12.48;;
44116;SDS011;29781;49.480;8.512;2022-07-23T07:02:39;13.88;;;12.50;;
44116;SDS011;29781;49.480;8.512;2022-07-23T07:05:05;15.57;;;12.00;;
44116;SDS011;29781;49.480;8.512;2022-07-23T07:07:30;14.02;;;11.43;;
44116;SDS011;29781;49.480;8.512;2022-07-23T07:09:56;12.30;;;10.63;;
44116;SDS011;29781;49.480;8.512;2022-07-23T07:12:22;11.73;;;10.52;;
44116;SDS011;29781;49.480;8.512;2022-07-23T07:14:47;14.73;;;10.70;;
44116;SDS011;29781;49.480;8.512;2022-07-23T07:17:13;13.43;;;11.10;;
44116;SDS011;29781;49.480;8.512;2022-07-23T07:19:40;12.38;;;9.73;;
44116;SDS011;29781;49.480;8.512;2022-07-23T07:22:06;10.82;;;9.70;;
44116;SDS011;29781;49.480;8.512;2022-07-23T07:24:31;12.45;;;9.57;;
44116;SDS011;29781;49.480;8.512;2022-07-23T07:26:57;10.48;;;9.15;;
44116;SDS011;29781;49.480;8.512;2022-07-23T07:29:23;11.38;;;8.68;;
44116;SDS011;29781;49.480;8.512;2022-07-23T07:31:49;10.52;;;9.18;;
44116;SDS011;29781;49.480;8.512;2022-07-23T07:34:15;9.85;;;8.77;;
44116;SDS011;29781;49.480;8.512;2022-07-23T07:36:40;10.43;;;9.27;;
44116;SDS011;29781;49.480;8.512;2022-07-23T07:39:08;11.68;;;10.07;;
44116;SDS011;29781;49.480;8.512;2022-07-23T07:41:35;12.95;;;9.20;;
44116;SDS011;29781;49.480;8.512;2022-07-23T07:44:01;10.30;;;9.05;;
44116;SDS011;29781;49.480;8.512;2022-07-23T07:46:27;9.35;;;8.35;;
44116;SDS011;29781;49.480;8.512;2022-07-23T07:48:53;8.52;;;7.35;;
44116;SDS011;29781;49.480;8.512;2022-07-23T07:51:18;9.75;;;8.75;;
44116;SDS011;29781;49.480;8.512;2022-07-23T07:53:44;10.68;;;8.18;;
44116;SDS011;29781;49.480;8.512;2022-07-23T07:56:10;9.75;;;8.70;;
44116;SDS011;29781;49.480;8.512;2022-07-23T07:58:35;8.52;;;7.65;;
44116;SDS011;29781;49.480;8.512;2022-07-23T08:01:01;8.85;;;7.97;;
44116;SDS011;29781;49.480;8.512;2022-07-23T08:03:27;9.68;;;8.13;;
44116;SDS011;29781;49.480;8.512;2022-07-23T08:05:53;10.20;;;9.05;;
44116;SDS011;29781;49.480;8.512;2022-07-23T08:08:19;10.23;;;8.38;;
44116;SDS011;29781;49.480;8.512;2022-07-23T08:10:45;9.73;;;8.73;;
44116;SDS011;29781;49.480;8.512;2022-07-23T08:13:14;12.18;;;9.35;;
44116;SDS011;29781;49.480;8.512;2022-07-23T08:15:41;9.68;;;8.77;;
44116;SDS011;29781;49.480;8.512;2022-07-23T08:18:07;11.25;;;9.43;;
44116;SDS011;29781;49.480;8.512;2022-07-23T08:20:33;11.55;;;9.40;;
44116;SDS011;29781;49.480;8.512;2022-07-23T08:23:02;10.07;;;8.57;;
44116;SDS011;29781;49.480;8.512;2022-07-23T08:25:30;10.73;;;9.47;;
44116;SDS011;29781;49.480;8.512;2022-07-23T08:27:58;12.95;;;8.82;;
44116;SDS011;29781;49.480;8.512;2022-07-23T08:30:25;10.40;;;8.90;;
44116;SDS011;29781;49.480;8.512;2022-07-23T08:35:21;10.18;;;9.20;;
44116;SDS011;29781;49.480;8.512;2022-07-23T08:37:52;9.05;;;8.20;;
44116;SDS011;29781;49.480;8.512;2022-07-23T08:40:18;9.90;;;8.68;;
44116;SDS011;29781;49.480;8.512;2022-07-23T08:42:46;10.90;;;8.80;;
44116;SDS011;29781;49.480;8.512;2022-07-23T08:45:13;11.13;;;8.60;;
44116;SDS011;29781;49.480;8.512;2022-07-23T08:47:42;11.88;;;9.43;;
44116;SDS011;29781;49.480;8.512;2022-07-23T08:50:09;9.77;;;8.77;;
44116;SDS011;29781;49.480;8.512;2022-07-23T08:52:35;9.65;;;8.75;;
44116;SDS011;29781;49.480;8.512;2022-07-23T08:55:02;15.02;;;8.73;;
44116;SDS011;29781;49.480;8.512;2022-07-23T08:57:28;9.10;;;8.18;;
44116;SDS011;29781;49.480;8.512;2022-07-23T08:59:54;12.10;;;9.40;;
44116;SDS011;29781;49.480;8.512;2022-07-23T09:02:20;15.57;;;9.20;;
44116;SDS011;29781;49.480;8.512;2022-07-23T09:04:46;15.25;;;9.75;;
44116;SDS011;29781;49.480;8.512;2022-07-23T09:07:11;10.30;;;9.10;;
44116;SDS011;29781;49.480;8.512;2022-07-23T09:09:37;11.18;;;10.00;;
44116;SDS011;29781;49.480;8.512;2022-07-23T09:12:03;9.52;;;8.45;;
44116;SDS011;29781;49.480;8.512;2022-07-23T09:14:43;10.20;;;9.27;;
44116;SDS011;29781;49.480;8.512;2022-07-23T09:17:15;12.88;;;9.68;;
44116;SDS011;29781;49.480;8.512;2022-07-23T09:19:42;10.32;;;9.23;;
44116;SDS011;29781;49.480;8.512;2022-07-23T09:25:04;10.82;;;9.73;;
44116;SDS011;29781;49.480;8.512;2022-07-23T09:27:51;13.75;;;11.13;;
44116;SDS011;29781;49.480;8.512;2022-07-23T09:30:21;10.25;;;9.23;;
44116;SDS011;29781;49.480;8.512;2022-07-23T09:33:07;11.75;;;10.55;;
44116;SDS011;29781;49.480;8.512;2022-07-23T09:38:14;16.45;;;12.45;;
44116;SDS011;29781;49.480;8.512;2022-07-23T09:40:40;12.68;;;11.35;;
44116;SDS011;29781;49.480;8.512;2022-07-23T09:43:07;12.13;;;10.93;;
44116;SDS011;29781;49.480;8.512;2022-07-23T09:45:33;13.50;;;10.48;;
44116;SDS011;29781;49.480;8.512;2022-07-23T09:48:13;14.13;;;10.95;;
44116;SDS011;29781;49.480;8.512;2022-07-23T09:50:40;15.88;;;12.18;;
44116;SDS011;29781;49.480;8.512;2022-07-23T09:53:07;12.98;;;11.05;;
44116;SDS011;29781;49.480;8.512;2022-07-23T09:55:33;17.85;;;12.95;;
44116;SDS011;29781;49.480;8.512;2022-07-23T09:58:06;11.98;;;10.65;;
44116;SDS011;29781;49.480;8.512;2022-07-23T10:00:36;14.38;;;12.45;;
44116;SDS011;29781;49.480;8.512;2022-07-23T10:03:02;14.68;;;13.20;;
44116;SDS011;29781;49.480;8.512;2022-07-23T10:05:30;15.23;;;13.65;;
44116;SDS011;29781;49.480;8.512;2022-07-23T10:07:57;14.45;;;12.48;;
44116;SDS011;29781;49.480;8.512;2022-07-23T10:10:26;14.15;;;12.32;;
44116;SDS011;29781;49.480;8.512;2022-07-23T10:12:54;16.48;;;12.50;;
44116;SDS011;29781;49.480;8.512;2022-07-23T10:15:39;16.25;;;14.38;;
44116;SDS011;29781;49.480;8.512;2022-07-23T10:18:06;17.73;;;13.68;;
44116;SDS011;29781;49.480;8.512;2022-07-23T10:20:34;22.90;;;15.52;;
44116;SDS011;29781;49.480;8.512;2022-07-23T10:34:07;16.02;;;13.82;;
44116;SDS011;29781;49.480;8.512;2022-07-23T10:41:49;15.55;;;13.63;;
44116;SDS011;29781;49.480;8.512;2022-07-23T10:44:17;15.45;;;13.88;;
44116;SDS011;29781;49.480;8.512;2022-07-23T10:49:33;15.38;;;13.77;;
44116;SDS011;29781;49.480;8.512;2022-07-23T10:52:15;13.60;;;12.20;;
44116;SDS011;29781;49.480;8.512;2022-07-23T10:54:43;18.73;;;13.38;;
44116;SDS011;29781;49.480;8.512;2022-07-23T10:57:10;17.55;;;15.30;;
44116;SDS011;29781;49.480;8.512;2022-07-23T11:02:38;14.50;;;11.68;;
44116;SDS011;29781;49.480;8.512;2022-07-23T11:05:07;14.70;;;12.82;;
44116;SDS011;29781;49.480;8.512;2022-07-23T11:08:09;14.35;;;12.13;;
44116;SDS011;29781;49.480;8.512;2022-07-23T11:10:39;14.85;;;13.43;;
44116;SDS011;29781;49.480;8.512;2022-07-23T11:16:15;13.35;;;11.43;;
44116;SDS011;29781;49.480;8.512;2022-07-23T11:23:58;11.55;;;9.70;;
44116;SDS011;29781;49.480;8.512;2022-07-23T11:31:57;14.52;;;11.73;;
44116;SDS011;29781;49.480;8.512;2022-07-23T11:34:31;12.13;;;10.60;;
44116;SDS011;29781;49.480;8.512;2022-07-23T11:39:24;14.75;;;12.75;;
44116;SDS011;29781;49.480;8.512;2022-07-23T11:41:52;12.25;;;11.00;;
44116;SDS011;29781;49.480;8.512;2022-07-23T11:44:24;18.08;;;11.32;;
44116;SDS011;29781;49.480;8.512;2022-07-23T11:46:55;16.15;;;13.73;;
44116;SDS011;29781;49.480;8.512;2022-07-23T11:49:22;15.38;;;12.32;;
44116;SDS011;29781;49.480;8.512;2022-07-23T11:52:08;12.52;;;11.20;;
44116;SDS011;29781;49.480;8.512;2022-07-23T11:54:36;13.38;;;11.98;;
44116;SDS011;29781;49.480;8.512;2022-07-23T11:57:11;15.75;;;11.50;;
44116;SDS011;29781;49.480;8.512;2022-07-23T11:59:37;12.70;;;11.02;;
44116;SDS011;29781;49.480;8.512;2022-07-23T12:02:04;12.13;;;10.82;;
44116;SDS011;29781;49.480;8.512;2022-07-23T12:07:04;11.35;;;10.18;;
44116;SDS011;29781;49.480;8.512;2022-07-23T12:09:47;12.68;;;11.45;;
44116;SDS011;29781;49.480;8.512;2022-07-23T12:12:13;10.82;;;9.75;;
44116;SDS011;29781;49.480;8.512;2022-07-23T12:14:47;10.93;;;9.82;;
44116;SDS011;29781;49.480;8.512;2022-07-23T12:17:15;10.43;;;9.35;;
44116;SDS011;29781;49.480;8.512;2022-07-23T12:19:41;12.25;;;10.13;;
44116;SDS011;29781;49.480;8.512;2022-07-23T12:22:07;11.10;;;9.93;;
44116;SDS011;29781;49.480;8.512;2022-07-23T12:27:25;11.40;;;9.48;;
44116;SDS011;29781;49.480;8.512;2022-07-23T12:29:52;11.48;;;10.23;;
44116;SDS011;29781;49.480;8.512;2022-07-23T12:34:50;12.30;;;10.07;;
44116;SDS011;29781;49.480;8.512;2022-07-23T12:37:28;11.60;;;10.40;;
44116;SDS011;29781;49.480;8.512;2022-07-23T12:39:58;10.20;;;9.27;;
44116;SDS011;29781;49.480;8.512;2022-07-23T12:42:48;9.77;;;8.88;;
44116;SDS011;29781;49.480;8.512;2022-07-23T12:45:15;10.00;;;8.88;;
44116;SDS011;29781;49.480;8.512;2022-07-23T12:48:00;10.48;;;9.38;;
44116;SDS011;29781;49.480;8.512;2022-07-23T12:50:33;10.68;;;9.68;;
44116;SDS011;29781;49.480;8.512;2022-07-23T12:55:30;12.43;;;9.88;;
44116;SDS011;29781;49.480;8.512;2022-07-23T12:58:03;11.15;;;10.00;;
44116;SDS011;29781;49.480;8.512;2022-07-23T13:00:34;11.93;;;10.07;;
44116;SDS011;29781;49.480;8.512;2022-07-23T13:03:32;12.85;;;10.10;;
44116;SDS011;29781;49.480;8.512;2022-07-23T13:06:01;12.05;;;10.20;;
44116;SDS011;29781;49.480;8.512;2022-07-23T13:08:28;11.27;;;10.10;;
44116;SDS011;29781;49.480;8.512;2022-07-23T13:10:55;12.90;;;10.43;;
44116;SDS011;29781;49.480;8.512;2022-07-23T13:13:26;12.20;;;10.80;;
44116;SDS011;29781;49.480;8.512;2022-07-23T13:15:53;11.43;;;10.23;;
44116;SDS011;29781;49.480;8.512;2022-07-23T13:18:20;12.32;;;11.00;;
44116;SDS011;29781;49.480;8.512;2022-07-23T13:20:47;11.63;;;10.50;;
44116;SDS011;29781;49.480;8.512;2022-07-23T13:23:13;13.70;;;10.38;;
44116;SDS011;29781;49.480;8.512;2022-07-23T13:25:40;12.05;;;9.85;;
44116;SDS011;29781;49.480;8.512;2022-07-23T13:28:05;13.10;;;10.32;;
44116;SDS011;29781;49.480;8.512;2022-07-23T13:30:31;12.82;;;10.77;;
44116;SDS011;29781;49.480;8.512;2022-07-23T13:32:58;13.20;;;10.20;;
44116;SDS011;29781;49.480;8.512;2022-07-23T13:35:24;11.95;;;10.70;;
44116;SDS011;29781;49.480;8.512;2022-07-23T13:37:50;12.18;;;10.30;;
44116;SDS011;29781;49.480;8.512;2022-07-23T13:40:15;11.82;;;10.35;;
44116;SDS011;29781;49.480;8.512;2022-07-23T13:42:41;11.07;;;9.98;;
44116;SDS011;29781;49.480;8.512;2022-07-23T13:45:07;11.18;;;10.07;;
44116;SDS011;29781;49.480;8.512;2022-07-23T13:47:33;10.77;;;9.30;;
44116;SDS011;29781;49.480;8.512;2022-07-23T13:49:58;10.48;;;9.48;;
44116;SDS011;29781;49.480;8.512;2022-07-23T13:52:24;10.10;;;9.20;;
44116;SDS011;29781;49.480;8.512;2022-07-23T13:54:50;12.70;;;9.60;;
44116;SDS011;29781;49.480;8.512;2022-07-23T13:57:16;10.38;;;9.23;;
44116;SDS011;29781;49.480;8.512;2022-07-23T13:59:42;14.10;;;9.60;;
44116;SDS011;29781;49.480;8.512;2022-07-23T14:02:08;9.48;;;8.52;;
44116;SDS011;29781;49.480;8.512;2022-07-23T14:04:33;10.00;;;9.10;;
44116;SDS011;29781;49.480;8.512;2022-07-23T14:06:59;10.15;;;9.18;;
44116;SDS011;29781;49.480;8.512;2022-07-23T14:09:26;9.68;;;8.68;;
44116;SDS011;29781;49.480;8.512;2022-07-23T14:11:51;10.13;;;9.13;;
44116;SDS011;29781;49.480;8.512;2022-07-23T14:14:17;10.00;;;9.00;;
44116;SDS011;29781;49.480;8.512;2022-07-23T14:16:44;9.65;;;8.70;;
44116;SDS011;29781;49.480;8.512;2022-07-23T14:19:10;10.35;;;9.15;;
44116;SDS011;29781;49.480;8.512;2022-07-23T14:21:36;10.13;;;9.10;;
44116;SDS011;29781;49.480;8.512;2022-07-23T14:24:02;11.02;;;10.02;;
44116;SDS011;29781;49.480;8.512;2022-07-23T14:26:28;9.13;;;8.23;;
44116;SDS011;29781;49.480;8.512;2022-07-23T14:28:55;10.73;;;9.63;;
44116;SDS011;29781;49.480;8.512;2022-07-23T14:31:21;10.63;;;9.43;;
44116;SDS011;29781;49.480;8.512;2022-07-23T14:33:47;11.45;;;9.18;;
44116;SDS011;29781;49.480;8.512;2022-07-23T14:36:13;9.98;;;8.98;;
44116;SDS011;29781;49.480;8.512;2022-07-23T14:38:39;10.68;;;8.75;;
44116;SDS011;29781;49.480;8.512;2022-07-23T14:41:05;10.20;;;9.20;;
44116;SDS011;29781;49.480;8.512;2022-07-23T14:43:32;10.60;;;8.63;;
44116;SDS011;29781;49.480;8.512;2022-07-23T14:46:00;12.50;;;9.00;;
44116;SDS011;29781;49.480;8.512;2022-07-23T14:48:26;9.80;;;8.15;;
44116;SDS011;29781;49.480;8.512;2022-07-23T14:50:52;10.10;;;8.40;;
44116;SDS011;29781;49.480;8.512;2022-07-23T14:53:17;10.05;;;9.05;;
44116;SDS011;29781;49.480;8.512;2022-07-23T14:55:43;9.90;;;8.43;;
44116;SDS011;29781;49.480;8.512;2022-07-23T14:58:09;10.15;;;8.88;;
44116;SDS011;29781;49.480;8.512;2022-07-23T15:00:34;10.27;;;9.38;;
44116;SDS011;29781;49.480;8.512;2022-07-23T15:03:00;9.43;;;8.63;;
44116;SDS011;29781;49.480;8.512;2022-07-23T15:05:26;10.23;;;9.05;;
44116;SDS011;29781;49.480;8.512;2022-07-23T15:07:53;11.18;;;9.07;;
44116;SDS011;29781;49.480;8.512;2022-07-23T15:10:18;10.18;;;8.82;;
44116;SDS011;29781;49.480;8.512;2022-07-23T15:12:44;9.18;;;8.38;;
44116;SDS011;29781;49.480;8.512;2022-07-23T15:15:10;10.18;;;8.90;;
44116;SDS011;29781;49.480;8.512;2022-07-23T15:17:35;11.57;;;9.20;;
44116;SDS011;29781;49.480;8.512;2022-07-23T15:20:01;9.23;;;8.43;;
44116;SDS011;29781;49.480;8.512;2022-07-23T15:22:27;9.73;;;8.73;;
44116;SDS011;29781;49.480;8.512;2022-07-23T15:24:53;10.40;;;8.07;;
44116;SDS011;29781;49.480;8.512;2022-07-23T15:27:19;10.52;;;9.13;;
44116;SDS011;29781;49.480;8.512;2022-07-23T15:29:45;9.60;;;8.60;;